sensor_id;sensor_type;location;lat;lon;timestamp;pressure;altitude;pressure_sealevel;temperature;humidity
27040;BME280;14589;51.578;7.306;2023-05-08T00:01:46;101524.91;;;14.81;75.86
27040;BME280;14589;51.578;7.306;2023-05-08T00:04:16;101531.13;;;14.73;75.73
27040;BME280;14589;51.578;7.306;2023-05-08T00:06:49;101523.22;;;14.70;75.91
27040;BME280;14589;51.578;7.306;2023-05-08T00:09:20;101523.56;;;14.67;76.35
27040;BME280;14589;51.578;7.306;2023-05-08T00:11:51;101529.31;;;14.64;76.14
27040;BME280;14589;51.578;7.306;2023-05-08T00:14:21;101523.00;;;14.64;76.90
27040;BME280;14589;51.578;7.306;2023-05-08T00:16:52;101531.03;;;14.65;76.04
27040;BME280;14589;51.578;7.306;2023-05-08T00:19:22;101524.47;;;14.58;76.52
27040;BME280;14589;51.578;7.306;2023-05-08T00:21:53;101524.34;;;14.60;76.30
27040;BME280;14589;51.578;7.306;2023-05-08T00:24:23;101535.53;;;14.56;77.01
27040;BME280;14589;51.578;7.306;2023-05-08T00:26:54;101528.53;;;14.54;77.02
27040;BME280;14589;51.578;7.306;2023-05-08T00:29:24;101532.91;;;14.47;77.04
27040;BME280;14589;51.578;7.306;2023-05-08T00:31:55;101533.03;;;14.45;77.18
27040;BME280;14589;51.578;7.306;2023-05-08T00:34:26;101524.91;;;14.36;77.38
27040;BME280;14589;51.578;7.306;2023-05-08T00:36:56;101522.06;;;14.37;77.50
27040;BME280;14589;51.578;7.306;2023-05-08T00:39:27;101514.91;;;14.27;77.28
27040;BME280;14589;51.578;7.306;2023-05-08T00:41:58;101511.38;;;14.16;77.54
27040;BME280;14589;51.578;7.306;2023-05-08T00:44:28;101528.00;;;14.23;77.99
27040;BME280;14589;51.578;7.306;2023-05-08T00:46:59;101520.03;;;14.12;77.79
27040;BME280;14589;51.578;7.306;2023-05-08T00:49:30;101531.47;;;14.15;77.61
27040;BME280;14589;51.578;7.306;2023-05-08T00:52:01;101534.22;;;14.15;77.73
27040;BME280;14589;51.578;7.306;2023-05-08T00:54:33;101526.63;;;14.09;78.06
27040;BME280;14589;51.578;7.306;2023-05-08T00:57:06;101523.75;;;14.11;77.76
27040;BME280;14589;51.578;7.306;2023-05-08T00:59:38;101532.81;;;14.11;77.88
27040;BME280;14589;51.578;7.306;2023-05-08T01:02:10;101530.53;;;14.07;77.60
27040;BME280;14589;51.578;7.306;2023-05-08T01:04:41;101530.69;;;14.05;77.88
27040;BME280;14589;51.578;7.306;2023-05-08T01:07:13;101531.16;;;14.01;77.76
27040;BME280;14589;51.578;7.306;2023-05-08T01:09:44;101523.66;;;14.03;78.36
27040;BME280;14589;51.578;7.306;2023-05-08T01:12:49;101529.81;;;14.05;78.57
27040;BME280;14589;51.578;7.306;2023-05-08T01:15:43;101531.69;;;14.04;78.33
27040;BME280;14589;51.578;7.306;2023-05-08T01:18:35;101527.38;;;14.02;78.55
27040;BME280;14589;51.578;7.306;2023-05-08T01:21:26;101525.97;;;13.98;77.98
27040;BME280;14589;51.578;7.306;2023-05-08T01:32:26;101534.56;;;13.75;78.61
27040;BME280;14589;51.578;7.306;2023-05-08T01:35:11;101532.69;;;13.76;78.00
27040;BME280;14589;51.578;7.306;2023-05-08T01:38:02;101535.31;;;13.68;78.66
27040;BME280;14589;51.578;7.306;2023-05-08T01:40:43;101531.41;;;13.70;78.78
27040;BME280;14589;51.578;7.306;2023-05-08T01:45:50;101542.47;;;13.69;79.31
27040;BME280;14589;51.578;7.306;2023-05-08T01:48:32;101529.13;;;13.66;79.56
27040;BME280;14589;51.578;7.306;2023-05-08T01:51:17;101539.16;;;13.75;79.73
27040;BME280;14589;51.578;7.306;2023-05-08T01:53:55;101533.59;;;13.67;79.24
27040;BME280;14589;51.578;7.306;2023-05-08T01:56:28;101536.63;;;13.64;79.63
27040;BME280;14589;51.578;7.306;2023-05-08T01:58:59;101540.91;;;13.66;79.63
27040;BME280;14589;51.578;7.306;2023-05-08T02:01:32;101537.63;;;13.63;79.75
27040;BME280;14589;51.578;7.306;2023-05-08T02:04:04;101540.34;;;13.63;79.78
27040;BME280;14589;51.578;7.306;2023-05-08T02:06:36;101541.63;;;13.59;79.78
27040;BME280;14589;51.578;7.306;2023-05-08T02:09:11;101540.63;;;13.60;80.10
27040;BME280;14589;51.578;7.306;2023-05-08T02:11:42;101539.50;;;13.53;79.90
27040;BME280;14589;51.578;7.306;2023-05-08T02:14:18;101534.22;;;13.51;80.34
27040;BME280;14589;51.578;7.306;2023-05-08T02:16:51;101544.53;;;13.57;80.38
27040;BME280;14589;51.578;7.306;2023-05-08T02:19:24;101543.69;;;13.47;79.76
27040;BME280;14589;51.578;7.306;2023-05-08T02:21:57;101553.03;;;13.35;80.17
27040;BME280;14589;51.578;7.306;2023-05-08T02:24:30;101551.03;;;13.27;79.47
27040;BME280;14589;51.578;7.306;2023-05-08T02:27:01;101560.94;;;13.28;80.33
27040;BME280;14589;51.578;7.306;2023-05-08T02:29:32;101554.19;;;13.23;79.67
27040;BME280;14589;51.578;7.306;2023-05-08T02:32:04;101542.47;;;13.13;79.97
27040;BME280;14589;51.578;7.306;2023-05-08T02:34:38;101543.56;;;13.10;80.07
27040;BME280;14589;51.578;7.306;2023-05-08T02:37:11;101544.75;;;13.17;79.93
27040;BME280;14589;51.578;7.306;2023-05-08T02:39:42;101551.59;;;13.12;79.98
27040;BME280;14589;51.578;7.306;2023-05-08T02:42:15;101555.22;;;13.12;80.59
27040;BME280;14589;51.578;7.306;2023-05-08T02:44:45;101557.94;;;13.12;80.73
27040;BME280;14589;51.578;7.306;2023-05-08T02:47:26;101555.78;;;13.16;80.93
27040;BME280;14589;51.578;7.306;2023-05-08T02:50:15;101561.63;;;13.11;80.20
27040;BME280;14589;51.578;7.306;2023-05-08T02:52:49;101560.22;;;13.07;80.63
27040;BME280;14589;51.578;7.306;2023-05-08T02:55:35;101549.78;;;13.12;80.57
27040;BME280;14589;51.578;7.306;2023-05-08T02:58:21;101555.34;;;13.11;80.26
27040;BME280;14589;51.578;7.306;2023-05-08T03:01:00;101560.22;;;13.17;80.39
27040;BME280;14589;51.578;7.306;2023-05-08T03:03:41;101541.16;;;13.07;80.71
27040;BME280;14589;51.578;7.306;2023-05-08T03:06:16;101552.38;;;13.14;80.05
27040;BME280;14589;51.578;7.306;2023-05-08T03:08:47;101560.38;;;13.15;80.57
27040;BME280;14589;51.578;7.306;2023-05-08T03:11:23;101561.41;;;13.14;80.79
27040;BME280;14589;51.578;7.306;2023-05-08T03:13:57;101555.94;;;13.14;80.86
27040;BME280;14589;51.578;7.306;2023-05-08T03:16:33;101557.06;;;13.12;80.90
27040;BME280;14589;51.578;7.306;2023-05-08T03:19:06;101550.88;;;13.10;81.30
27040;BME280;14589;51.578;7.306;2023-05-08T03:21:39;101552.31;;;13.04;81.30
27040;BME280;14589;51.578;7.306;2023-05-08T03:24:16;101557.22;;;13.01;81.54
27040;BME280;14589;51.578;7.306;2023-05-08T03:26:47;101553.03;;;12.96;81.84
27040;BME280;14589;51.578;7.306;2023-05-08T03:29:19;101556.19;;;12.92;82.09
27040;BME280;14589;51.578;7.306;2023-05-08T03:31:50;101558.38;;;12.88;81.80
27040;BME280;14589;51.578;7.306;2023-05-08T03:34:22;101551.63;;;12.83;82.49
27040;BME280;14589;51.578;7.306;2023-05-08T03:36:54;101545.03;;;12.76;82.83
27040;BME280;14589;51.578;7.306;2023-05-08T03:39:25;101543.03;;;12.68;82.31
27040;BME280;14589;51.578;7.306;2023-05-08T03:41:56;101545.19;;;12.65;82.17
27040;BME280;14589;51.578;7.306;2023-05-08T03:44:28;101545.44;;;12.62;82.74
27040;BME280;14589;51.578;7.306;2023-05-08T03:46:59;101554.75;;;12.59;82.95
27040;BME280;14589;51.578;7.306;2023-05-08T03:49:32;101543.59;;;12.52;82.73
27040;BME280;14589;51.578;7.306;2023-05-08T03:52:05;101541.44;;;12.46;82.97
27040;BME280;14589;51.578;7.306;2023-05-08T03:54:35;101542.41;;;12.36;83.40
27040;BME280;14589;51.578;7.306;2023-05-08T03:57:07;101546.13;;;12.35;83.89
27040;BME280;14589;51.578;7.306;2023-05-08T03:59:43;101549.25;;;12.30;84.23
27040;BME280;14589;51.578;7.306;2023-05-08T04:05:04;101548.41;;;12.20;84.02
27040;BME280;14589;51.578;7.306;2023-05-08T04:07:47;101545.81;;;12.19;84.59
27040;BME280;14589;51.578;7.306;2023-05-08T04:10:31;101552.84;;;12.21;84.27
27040;BME280;14589;51.578;7.306;2023-05-08T04:13:07;101554.81;;;12.19;84.55
27040;BME280;14589;51.578;7.306;2023-05-08T04:15:47;101555.09;;;12.16;84.39
27040;BME280;14589;51.578;7.306;2023-05-08T04:18:33;101555.38;;;12.13;84.01
27040;BME280;14589;51.578;7.306;2023-05-08T04:21:08;101559.09;;;12.12;84.76
27040;BME280;14589;51.578;7.306;2023-05-08T04:23:41;101566.53;;;12.10;84.45
27040;BME280;14589;51.578;7.306;2023-05-08T04:26:15;101552.22;;;12.08;83.76
27040;BME280;14589;51.578;7.306;2023-05-08T04:28:48;101557.66;;;12.08;84.94
27040;BME280;14589;51.578;7.306;2023-05-08T04:31:18;101560.38;;;12.08;84.86
27040;BME280;14589;51.578;7.306;2023-05-08T04:33:49;101562.25;;;12.07;85.54
27040;BME280;14589;51.578;7.306;2023-05-08T04:36:20;101574.97;;;12.07;85.32
27040;BME280;14589;51.578;7.306;2023-05-08T04:38:51;101575.53;;;12.10;84.99
27040;BME280;14589;51.578;7.306;2023-05-08T04:41:21;101564.53;;;12.12;86.04
27040;BME280;14589;51.578;7.306;2023-05-08T04:43:53;101577.88;;;12.15;85.29
27040;BME280;14589;51.578;7.306;2023-05-08T04:46:23;101577.56;;;12.18;85.59
27040;BME280;14589;51.578;7.306;2023-05-08T04:48:54;101578.31;;;12.20;85.35
27040;BME280;14589;51.578;7.306;2023-05-08T04:51:25;101575.72;;;12.19;85.30
27040;BME280;14589;51.578;7.306;2023-05-08T04:53:56;101582.59;;;12.23;85.97
27040;BME280;14589;51.578;7.306;2023-05-08T04:56:26;101593.78;;;12.29;85.50
27040;BME280;14589;51.578;7.306;2023-05-08T04:58:57;101594.50;;;12.31;85.51
27040;BME280;14589;51.578;7.306;2023-05-08T05:01:28;101595.81;;;12.37;85.76
27040;BME280;14589;51.578;7.306;2023-05-08T05:03:59;101594.69;;;12.39;85.30
27040;BME280;14589;51.578;7.306;2023-05-08T05:06:29;101601.41;;;12.45;85.53
27040;BME280;14589;51.578;7.306;2023-05-08T05:09:00;101601.44;;;12.54;86.06
27040;BME280;14589;51.578;7.306;2023-05-08T05:11:30;101601.88;;;12.60;85.26
27040;BME280;14589;51.578;7.306;2023-05-08T05:14:01;101593.88;;;12.68;85.32
27040;BME280;14589;51.578;7.306;2023-05-08T05:16:32;101601.47;;;12.74;85.56
27040;BME280;14589;51.578;7.306;2023-05-08T05:19:02;101602.31;;;12.84;84.85
27040;BME280;14589;51.578;7.306;2023-05-08T05:21:34;101593.59;;;12.90;84.57
27040;BME280;14589;51.578;7.306;2023-05-08T05:24:07;101602.50;;;13.02;84.77
27040;BME280;14589;51.578;7.306;2023-05-08T05:26:37;101597.91;;;13.02;84.29
27040;BME280;14589;51.578;7.306;2023-05-08T05:29:08;101602.50;;;13.11;84.32
27040;BME280;14589;51.578;7.306;2023-05-08T05:31:38;101600.94;;;13.18;83.95
27040;BME280;14589;51.578;7.306;2023-05-08T05:34:09;101603.66;;;13.28;84.08
27040;BME280;14589;51.578;7.306;2023-05-08T05:36:40;101604.25;;;13.31;83.56
27040;BME280;14589;51.578;7.306;2023-05-08T05:39:11;101612.81;;;13.36;83.59
27040;BME280;14589;51.578;7.306;2023-05-08T05:41:42;101613.69;;;13.37;83.15
27040;BME280;14589;51.578;7.306;2023-05-08T05:44:13;101601.38;;;13.33;83.19
27040;BME280;14589;51.578;7.306;2023-05-08T05:46:44;101607.25;;;13.38;83.01
27040;BME280;14589;51.578;7.306;2023-05-08T05:49:15;101603.22;;;13.42;82.37
27040;BME280;14589;51.578;7.306;2023-05-08T05:51:45;101601.34;;;13.43;82.65
27040;BME280;14589;51.578;7.306;2023-05-08T05:54:16;101611.94;;;13.46;82.38
27040;BME280;14589;51.578;7.306;2023-05-08T05:56:46;101606.03;;;13.60;82.33
27040;BME280;14589;51.578;7.306;2023-05-08T05:59:17;101604.59;;;13.65;81.90
27040;BME280;14589;51.578;7.306;2023-05-08T06:01:48;101607.00;;;13.78;82.38
27040;BME280;14589;51.578;7.306;2023-05-08T06:04:18;101606.81;;;13.89;81.97
27040;BME280;14589;51.578;7.306;2023-05-08T06:06:48;101614.38;;;14.05;81.35
27040;BME280;14589;51.578;7.306;2023-05-08T06:09:19;101619.63;;;14.16;80.83
27040;BME280;14589;51.578;7.306;2023-05-08T06:11:49;101609.38;;;14.28;81.20
27040;BME280;14589;51.578;7.306;2023-05-08T06:14:20;101610.31;;;14.46;81.31
27040;BME280;14589;51.578;7.306;2023-05-08T06:16:51;101603.03;;;14.64;81.05
27040;BME280;14589;51.578;7.306;2023-05-08T06:19:21;101614.16;;;14.80;80.25
27040;BME280;14589;51.578;7.306;2023-05-08T06:21:53;101611.03;;;14.93;79.69
27040;BME280;14589;51.578;7.306;2023-05-08T06:24:24;101620.16;;;15.02;79.75
27040;BME280;14589;51.578;7.306;2023-05-08T06:26:54;101615.78;;;15.09;78.46
27040;BME280;14589;51.578;7.306;2023-05-08T06:29:24;101617.41;;;15.19;78.91
27040;BME280;14589;51.578;7.306;2023-05-08T06:31:55;101612.03;;;15.27;79.14
27040;BME280;14589;51.578;7.306;2023-05-08T06:34:26;101621.84;;;15.38;79.18
27040;BME280;14589;51.578;7.306;2023-05-08T06:36:56;101609.59;;;15.42;78.91
27040;BME280;14589;51.578;7.306;2023-05-08T06:39:26;101612.84;;;15.46;78.70
27040;BME280;14589;51.578;7.306;2023-05-08T06:41:57;101610.66;;;15.49;78.54
27040;BME280;14589;51.578;7.306;2023-05-08T06:44:33;101606.75;;;15.52;78.69
27040;BME280;14589;51.578;7.306;2023-05-08T06:47:03;101607.66;;;15.52;78.98
27040;BME280;14589;51.578;7.306;2023-05-08T06:52:34;101611.78;;;15.56;78.66
27040;BME280;14589;51.578;7.306;2023-05-08T06:55:05;101603.13;;;15.61;78.90
27040;BME280;14589;51.578;7.306;2023-05-08T06:57:35;101611.84;;;15.64;78.59
27040;BME280;14589;51.578;7.306;2023-05-08T07:00:06;101594.94;;;15.69;78.78
27040;BME280;14589;51.578;7.306;2023-05-08T07:02:37;101607.59;;;15.70;79.00
27040;BME280;14589;51.578;7.306;2023-05-08T07:05:07;101615.16;;;15.76;78.75
27040;BME280;14589;51.578;7.306;2023-05-08T07:07:38;101601.00;;;15.81;78.79
27040;BME280;14589;51.578;7.306;2023-05-08T07:10:09;101600.78;;;16.00;78.89
27040;BME280;14589;51.578;7.306;2023-05-08T07:12:39;101602.84;;;16.06;78.06
27040;BME280;14589;51.578;7.306;2023-05-08T07:15:10;101607.56;;;16.22;77.98
27040;BME280;14589;51.578;7.306;2023-05-08T07:17:40;101598.53;;;16.29;77.57
27040;BME280;14589;51.578;7.306;2023-05-08T07:20:11;101597.59;;;16.46;77.17
27040;BME280;14589;51.578;7.306;2023-05-08T07:22:42;101604.50;;;16.67;76.41
27040;BME280;14589;51.578;7.306;2023-05-08T07:25:12;101605.25;;;16.93;76.64
27040;BME280;14589;51.578;7.306;2023-05-08T07:27:43;101604.63;;;17.15;76.41
27040;BME280;14589;51.578;7.306;2023-05-08T07:30:13;101610.44;;;17.36;76.43
27040;BME280;14589;51.578;7.306;2023-05-08T07:32:44;101597.56;;;17.53;75.32
27040;BME280;14589;51.578;7.306;2023-05-08T07:35:14;101606.69;;;17.70;75.01
27040;BME280;14589;51.578;7.306;2023-05-08T07:37:45;101606.81;;;17.85;73.97
27040;BME280;14589;51.578;7.306;2023-05-08T07:40:15;101605.56;;;18.03;73.85
27040;BME280;14589;51.578;7.306;2023-05-08T07:42:46;101614.44;;;18.22;73.32
27040;BME280;14589;51.578;7.306;2023-05-08T07:45:17;101612.28;;;18.40;72.29
27040;BME280;14589;51.578;7.306;2023-05-08T07:47:52;101616.41;;;18.44;71.71
27040;BME280;14589;51.578;7.306;2023-05-08T07:50:24;101617.75;;;18.56;71.96
27040;BME280;14589;51.578;7.306;2023-05-08T07:52:54;101621.13;;;18.66;71.19
27040;BME280;14589;51.578;7.306;2023-05-08T07:55:24;101620.06;;;18.75;70.80
27040;BME280;14589;51.578;7.306;2023-05-08T07:57:55;101623.63;;;18.84;70.97
27040;BME280;14589;51.578;7.306;2023-05-08T08:00:25;101624.44;;;18.92;69.52
27040;BME280;14589;51.578;7.306;2023-05-08T08:02:58;101628.81;;;19.02;69.43
27040;BME280;14589;51.578;7.306;2023-05-08T08:05:29;101633.97;;;19.05;68.94
27040;BME280;14589;51.578;7.306;2023-05-08T08:07:59;101632.88;;;19.14;68.86
27040;BME280;14589;51.578;7.306;2023-05-08T08:10:30;101636.31;;;19.16;68.98
27040;BME280;14589;51.578;7.306;2023-05-08T08:13:00;101631.72;;;19.31;68.62
27040;BME280;14589;51.578;7.306;2023-05-08T08:15:31;101630.25;;;19.43;68.46
27040;BME280;14589;51.578;7.306;2023-05-08T08:18:01;101628.13;;;19.53;68.12
27040;BME280;14589;51.578;7.306;2023-05-08T08:20:31;101630.19;;;19.51;67.84
27040;BME280;14589;51.578;7.306;2023-05-08T08:23:02;101631.75;;;19.54;67.57
27040;BME280;14589;51.578;7.306;2023-05-08T08:25:32;101627.38;;;19.59;66.86
27040;BME280;14589;51.578;7.306;2023-05-08T08:28:03;101629.69;;;19.70;67.14
27040;BME280;14589;51.578;7.306;2023-05-08T08:30:33;101620.16;;;19.81;66.81
27040;BME280;14589;51.578;7.306;2023-05-08T08:33:03;101625.72;;;19.88;66.36
27040;BME280;14589;51.578;7.306;2023-05-08T08:35:35;101623.19;;;20.01;66.09
27040;BME280;14589;51.578;7.306;2023-05-08T08:38:05;101618.28;;;20.11;65.58
27040;BME280;14589;51.578;7.306;2023-05-08T08:40:40;101619.88;;;20.20;64.61
27040;BME280;14589;51.578;7.306;2023-05-08T08:43:10;101621.69;;;20.28;64.42
27040;BME280;14589;51.578;7.306;2023-05-08T08:45:41;101625.97;;;20.30;64.42
27040;BME280;14589;51.578;7.306;2023-05-08T08:48:11;101627.59;;;20.39;64.29
27040;BME280;14589;51.578;7.306;2023-05-08T08:50:43;101618.09;;;20.42;63.77
27040;BME280;14589;51.578;7.306;2023-05-08T08:53:26;101612.97;;;20.39;62.28
27040;BME280;14589;51.578;7.306;2023-05-08T08:55:59;101618.66;;;20.23;62.02
27040;BME280;14589;51.578;7.306;2023-05-08T08:58:37;101620.16;;;20.25;62.96
27040;BME280;14589;51.578;7.306;2023-05-08T09:01:17;101627.66;;;20.31;63.14
27040;BME280;14589;51.578;7.306;2023-05-08T09:03:48;101620.09;;;20.33;63.48
27040;BME280;14589;51.578;7.306;2023-05-08T09:06:19;101625.34;;;20.43;63.58
27040;BME280;14589;51.578;7.306;2023-05-08T09:08:50;101621.31;;;20.45;62.11
27040;BME280;14589;51.578;7.306;2023-05-08T09:11:21;101614.38;;;20.49;62.96
27040;BME280;14589;51.578;7.306;2023-05-08T09:13:53;101628.72;;;20.59;62.91
27040;BME280;14589;51.578;7.306;2023-05-08T09:16:26;101622.44;;;20.66;62.90
27040;BME280;14589;51.578;7.306;2023-05-08T09:18:57;101621.41;;;20.67;62.00
27040;BME280;14589;51.578;7.306;2023-05-08T09:21:28;101622.25;;;20.67;61.74
27040;BME280;14589;51.578;7.306;2023-05-08T09:24:00;101630.41;;;20.75;61.86
27040;BME280;14589;51.578;7.306;2023-05-08T09:26:33;101620.31;;;20.68;61.87
27040;BME280;14589;51.578;7.306;2023-05-08T09:29:11;101617.78;;;20.66;61.50
27040;BME280;14589;51.578;7.306;2023-05-08T09:31:47;101627.19;;;20.57;61.91
27040;BME280;14589;51.578;7.306;2023-05-08T09:34:24;101619.41;;;20.46;62.17
27040;BME280;14589;51.578;7.306;2023-05-08T09:39:36;101626.91;;;20.37;62.65
27040;BME280;14589;51.578;7.306;2023-05-08T09:42:10;101620.25;;;20.17;61.71
27040;BME280;14589;51.578;7.306;2023-05-08T09:44:51;101627.84;;;20.15;62.26
27040;BME280;14589;51.578;7.306;2023-05-08T09:47:24;101629.75;;;20.14;62.90
27040;BME280;14589;51.578;7.306;2023-05-08T09:52:32;101624.75;;;20.18;61.65
27040;BME280;14589;51.578;7.306;2023-05-08T09:55:08;101635.19;;;20.23;61.87
27040;BME280;14589;51.578;7.306;2023-05-08T09:57:53;101631.06;;;20.18;62.13
27040;BME280;14589;51.578;7.306;2023-05-08T10:00:27;101629.66;;;20.23;62.03
27040;BME280;14589;51.578;7.306;2023-05-08T10:03:01;101634.13;;;20.24;61.88
27040;BME280;14589;51.578;7.306;2023-05-08T10:05:33;101634.13;;;20.24;62.27
27040;BME280;14589;51.578;7.306;2023-05-08T10:08:23;101632.16;;;20.17;62.63
27040;BME280;14589;51.578;7.306;2023-05-08T10:11:15;101634.31;;;20.22;62.94
27040;BME280;14589;51.578;7.306;2023-05-08T10:13:46;101630.53;;;20.23;63.16
27040;BME280;14589;51.578;7.306;2023-05-08T10:16:17;101640.59;;;20.16;63.26
27040;BME280;14589;51.578;7.306;2023-05-08T10:18:49;101640.00;;;20.06;63.28
27040;BME280;14589;51.578;7.306;2023-05-08T10:21:19;101634.31;;;20.07;63.21
27040;BME280;14589;51.578;7.306;2023-05-08T10:23:52;101637.63;;;20.03;63.14
27040;BME280;14589;51.578;7.306;2023-05-08T10:26:31;101643.81;;;20.05;63.46
27040;BME280;14589;51.578;7.306;2023-05-08T10:29:12;101633.81;;;19.89;63.62
27040;BME280;14589;51.578;7.306;2023-05-08T10:31:48;101645.94;;;19.80;63.38
27040;BME280;14589;51.578;7.306;2023-05-08T10:34:21;101637.88;;;19.78;63.21
27040;BME280;14589;51.578;7.306;2023-05-08T10:36:53;101637.88;;;19.78;63.48
27040;BME280;14589;51.578;7.306;2023-05-08T10:39:24;101639.03;;;19.84;63.25
27040;BME280;14589;51.578;7.306;2023-05-08T10:41:55;101641.88;;;19.91;63.38
27040;BME280;14589;51.578;7.306;2023-05-08T10:44:27;101636.84;;;19.94;63.21
27040;BME280;14589;51.578;7.306;2023-05-08T10:47:07;101633.22;;;19.94;63.33
27040;BME280;14589;51.578;7.306;2023-05-08T10:49:48;101621.50;;;20.14;63.33
27040;BME280;14589;51.578;7.306;2023-05-08T10:52:33;101633.00;;;20.33;62.60
27040;BME280;14589;51.578;7.306;2023-05-08T10:55:19;101621.03;;;20.40;62.59
27040;BME280;14589;51.578;7.306;2023-05-08T11:03:44;101623.84;;;20.76;60.20
27040;BME280;14589;51.578;7.306;2023-05-08T11:06:16;101612.72;;;21.06;61.12
27040;BME280;14589;51.578;7.306;2023-05-08T11:08:51;101616.06;;;21.16;61.49
27040;BME280;14589;51.578;7.306;2023-05-08T11:11:27;101611.25;;;21.24;57.66
27040;BME280;14589;51.578;7.306;2023-05-08T11:14:10;101604.00;;;21.23;56.98
27040;BME280;14589;51.578;7.306;2023-05-08T11:17:08;101612.91;;;21.40;57.37
27040;BME280;14589;51.578;7.306;2023-05-08T11:19:53;101611.63;;;21.64;56.63
27040;BME280;14589;51.578;7.306;2023-05-08T11:22:29;101602.13;;;21.73;56.44
27040;BME280;14589;51.578;7.306;2023-05-08T11:25:03;101596.50;;;21.88;56.77
27040;BME280;14589;51.578;7.306;2023-05-08T11:30:37;101594.72;;;22.01;56.96
27040;BME280;14589;51.578;7.306;2023-05-08T11:35:54;101599.78;;;21.70;57.05
27040;BME280;14589;51.578;7.306;2023-05-08T11:38:29;101595.16;;;21.77;57.30
27040;BME280;14589;51.578;7.306;2023-05-08T11:41:01;101606.16;;;21.98;57.57
27040;BME280;14589;51.578;7.306;2023-05-08T11:46:03;101602.47;;;21.91;57.60
27040;BME280;14589;51.578;7.306;2023-05-08T11:48:34;101601.06;;;21.95;57.84
27040;BME280;14589;51.578;7.306;2023-05-08T11:51:05;101596.88;;;22.06;56.99
27040;BME280;14589;51.578;7.306;2023-05-08T11:53:36;101596.25;;;22.10;56.36
27040;BME280;14589;51.578;7.306;2023-05-08T11:56:07;101602.69;;;22.17;55.63
27040;BME280;14589;51.578;7.306;2023-05-08T11:58:37;101594.59;;;21.88;57.17
27040;BME280;14589;51.578;7.306;2023-05-08T12:01:08;101589.06;;;21.88;58.36
27040;BME280;14589;51.578;7.306;2023-05-08T12:03:38;101595.53;;;21.95;58.04
27040;BME280;14589;51.578;7.306;2023-05-08T12:06:09;101592.69;;;22.16;57.89
27040;BME280;14589;51.578;7.306;2023-05-08T12:08:39;101592.94;;;22.22;57.26
27040;BME280;14589;51.578;7.306;2023-05-08T12:11:09;101586.56;;;22.21;56.81
27040;BME280;14589;51.578;7.306;2023-05-08T12:13:40;101593.41;;;22.32;57.13
27040;BME280;14589;51.578;7.306;2023-05-08T12:16:10;101589.47;;;22.54;56.75
27040;BME280;14589;51.578;7.306;2023-05-08T12:18:40;101586.19;;;22.78;56.28
27040;BME280;14589;51.578;7.306;2023-05-08T12:21:13;101581.19;;;23.08;53.30
27040;BME280;14589;51.578;7.306;2023-05-08T12:23:44;101590.31;;;23.15;51.78
27040;BME280;14589;51.578;7.306;2023-05-08T12:26:14;101591.84;;;23.31;50.96
27040;BME280;14589;51.578;7.306;2023-05-08T12:28:45;101589.28;;;23.23;48.88
27040;BME280;14589;51.578;7.306;2023-05-08T12:31:16;101591.41;;;23.14;50.46
27040;BME280;14589;51.578;7.306;2023-05-08T12:33:47;101592.00;;;23.10;50.78
27040;BME280;14589;51.578;7.306;2023-05-08T12:36:17;101595.00;;;23.08;50.16
27040;BME280;14589;51.578;7.306;2023-05-08T12:38:49;101584.34;;;23.05;49.06
27040;BME280;14589;51.578;7.306;2023-05-08T12:41:23;101590.31;;;22.95;49.52
27040;BME280;14589;51.578;7.306;2023-05-08T12:43:53;101580.09;;;23.09;49.77
27040;BME280;14589;51.578;7.306;2023-05-08T12:46:24;101585.22;;;23.19;50.60
27040;BME280;14589;51.578;7.306;2023-05-08T12:49:00;101585.22;;;23.19;50.29
27040;BME280;14589;51.578;7.306;2023-05-08T12:51:33;101584.38;;;23.25;50.51
27040;BME280;14589;51.578;7.306;2023-05-08T12:54:04;101588.44;;;23.42;50.88
27040;BME280;14589;51.578;7.306;2023-05-08T12:56:41;101578.22;;;23.43;50.45
27040;BME280;14589;51.578;7.306;2023-05-08T12:59:11;101581.22;;;23.87;49.01
27040;BME280;14589;51.578;7.306;2023-05-08T13:01:49;101567.94;;;24.09;48.70
27040;BME280;14589;51.578;7.306;2023-05-08T13:04:19;101568.81;;;24.03;48.46
27040;BME280;14589;51.578;7.306;2023-05-08T13:06:56;101569.50;;;23.85;48.86
27040;BME280;14589;51.578;7.306;2023-05-08T13:09:26;101561.53;;;24.08;49.10
27040;BME280;14589;51.578;7.306;2023-05-08T13:11:57;101568.97;;;24.28;48.81
27040;BME280;14589;51.578;7.306;2023-05-08T13:14:28;101570.47;;;24.30;48.67
27040;BME280;14589;51.578;7.306;2023-05-08T13:16:58;101560.47;;;24.16;49.03
27040;BME280;14589;51.578;7.306;2023-05-08T13:19:28;101566.22;;;24.08;49.23
27040;BME280;14589;51.578;7.306;2023-05-08T13:21:59;101561.81;;;24.00;49.40
27040;BME280;14589;51.578;7.306;2023-05-08T13:24:30;101555.19;;;23.95;49.50
27040;BME280;14589;51.578;7.306;2023-05-08T13:27:00;101556.47;;;23.99;48.95
27040;BME280;14589;51.578;7.306;2023-05-08T13:29:31;101564.59;;;23.81;49.00
27040;BME280;14589;51.578;7.306;2023-05-08T13:32:01;101553.50;;;23.94;48.43
27040;BME280;14589;51.578;7.306;2023-05-08T13:34:31;101557.13;;;24.01;48.65
27040;BME280;14589;51.578;7.306;2023-05-08T13:37:02;101550.31;;;23.84;48.57
27040;BME280;14589;51.578;7.306;2023-05-08T13:39:32;101551.31;;;24.02;47.95
27040;BME280;14589;51.578;7.306;2023-05-08T13:42:06;101547.78;;;23.69;48.69
27040;BME280;14589;51.578;7.306;2023-05-08T13:44:36;101535.16;;;23.93;48.98
27040;BME280;14589;51.578;7.306;2023-05-08T13:47:08;101534.13;;;23.28;50.47
27040;BME280;14589;51.578;7.306;2023-05-08T13:49:39;101532.25;;;23.48;49.97
27040;BME280;14589;51.578;7.306;2023-05-08T13:52:09;101530.13;;;23.50;50.43
27040;BME280;14589;51.578;7.306;2023-05-08T13:54:40;101526.50;;;23.56;50.23
27040;BME280;14589;51.578;7.306;2023-05-08T13:57:10;101530.53;;;23.60;50.02